Latest Weather Observations for Ocean Reef

IDW60801

Issued at 10:05 pm WST Tuesday 23 September 2014 (issued every 30 minutes, with the page automatically refreshed every 10 minutes)

About weather observations | Map of weather stations | Latest weather observations for WA | Other Formats
Station Details ID: 009214 Name: OCEAN REEF Lat: -31.76 Lon: 115.73 Height: 10.0 m
Data from the previous 72 hours. | See also: Recent months for locations in Western Australia
Date/Time
WST
Temp
°C
App
Temp
°C
Dew
Point
Rel
Hum
%
Delta-T
°C
Wind Press
QNH
hPa
Press
MSL
hPa
Rain
since 9 am
mm
Dir
 
Spd
km/h
Gust
km/h
Spd
kts
Gust
kts
23/10:00pm - - - - - SE 13 15 7 8 - - -
23/09:30pm - - - - - SE 13 15 7 8 - - -
23/09:00pm - - - - - SSE 11 13 6 7 - - -
23/08:30pm - - - - - SE 11 13 6 7 - - -
23/08:00pm - - - - - SSE 15 19 8 10 - - -
23/07:30pm - - - - - S 17 24 9 13 - - -
23/07:00pm - - - - - S 17 22 9 12 - - -
23/06:30pm - - - - - S 17 20 9 11 - - -
23/06:00pm - - - - - S 17 22 9 12 - - -
23/05:30pm - - - - - S 19 26 10 14 - - -
23/05:00pm - - - - - S 19 24 10 13 - - -
23/04:30pm - - - - - S 19 24 10 13 - - -
23/04:00pm - - - - - SSW 19 22 10 12 - - -
23/03:30pm - - - - - S 17 22 9 12 - - -
23/03:00pm - - - - - S 17 20 9 11 - - -
23/02:30pm - - - - - SSW 17 20 9 11 - - -
23/02:00pm - - - - - SSW 15 19 8 10 - - -
23/01:30pm - - - - - SSW 17 20 9 11 - - -
23/01:00pm - - - - - SSW 17 22 9 12 - - -
23/12:30pm - - - - - SSW 9 15 5 8 - - -
23/12:00pm - - - - - SE 11 19 6 10 - - -
23/11:30am - - - - - ESE 11 19 6 10 - - -
23/11:00am - - - - - E 13 22 7 12 - - -
23/10:30am - - - - - E 13 19 7 10 - - -
23/10:00am - - - - - E 13 19 7 10 - - -
23/09:30am - - - - - ENE 15 22 8 12 - - -
23/09:00am - - - - - ENE 15 20 8 11 - - -
23/08:30am - - - - - ENE 17 22 9 12 - - -
23/08:00am - - - - - ENE 15 22 8 12 - - -
23/07:30am - - - - - ENE 17 24 9 13 - - -
23/07:00am - - - - - ENE 17 26 9 14 - - -
23/06:30am - - - - - ENE 15 19 8 10 - - -
23/06:00am - - - - - ENE 17 20 9 11 - - -
23/05:30am - - - - - E 17 20 9 11 - - -
23/05:00am - - - - - E 17 20 9 11 - - -
23/04:30am - - - - - ENE 15 17 8 9 - - -
23/04:00am - - - - - E 13 17 7 9 - - -
23/03:30am - - - - - E 13 17 7 9 - - -
23/03:00am - - - - - E 15 17 8 9 - - -
23/02:30am - - - - - E 15 19 8 10 - - -
23/02:00am - - - - - ESE 13 17 7 9 - - -
23/01:30am - - - - - ESE 13 17 7 9 - - -
23/01:00am - - - - - SE 11 17 6 9 - - -
23/12:30am - - - - - SE 11 13 6 7 - - -
23/12:00am - - - - - SE 15 20 8 11 - - -
 
Date/Time
WST
Temp
°C
App
Temp
°C
Dew
Point
Rel
Hum
%
Delta-T
°C
Wind Press
QNH
hPa
Press
MSL
hPa
Rain
since 9 am
mm
Dir
 
Spd
km/h
Gust
km/h
Spd
kts
Gust
kts
22/11:30pm - - - - - SE 17 24 9 13 - - -
22/11:00pm - - - - - SE 15 22 8 12 - - -
22/10:30pm - - - - - SE 17 26 9 14 - - -
22/10:00pm - - - - - SE 17 22 9 12 - - -
22/09:30pm - - - - - SE 13 19 7 10 - - -
22/09:00pm - - - - - SSE 19 33 10 18 - - -
22/08:30pm - - - - - S 30 43 16 23 - - -
22/08:00pm - - - - - S 30 39 16 21 - - -
22/07:30pm - - - - - S 32 41 17 22 - - -
22/07:00pm - - - - - S 35 43 19 23 - - -
22/06:30pm - - - - - SSW 35 43 19 23 - - -
22/06:00pm - - - - - S 35 43 19 23 - - -
22/05:30pm - - - - - S 35 44 19 24 - - -
22/05:00pm - - - - - SSW 33 39 18 21 - - -
22/04:30pm - - - - - SSW 33 41 18 22 - - -
22/04:00pm - - - - - SSW 33 39 18 21 - - -
22/03:30pm - - - - - SSW 32 37 17 20 - - -
22/03:00pm - - - - - SSW 30 37 16 20 - - -
22/02:30pm - - - - - SSW 28 35 15 19 - - -
22/02:00pm - - - - - SSW 28 35 15 19 - - -
22/01:30pm - - - - - SSW 30 37 16 20 - - -
22/01:00pm - - - - - SSW 28 33 15 18 - - -
22/12:30pm - - - - - SSW 30 37 16 20 - - -
22/12:00pm - - - - - SSW 26 33 14 18 - - -
22/11:30am - - - - - S 30 33 16 18 - - -
22/11:00am - - - - - S 26 33 14 18 - - -
22/10:30am - - - - - S 26 33 14 18 - - -
22/10:00am - - - - - S 24 32 13 17 - - -
22/09:30am - - - - - S 24 35 13 19 - - -
22/09:00am - - - - - S 28 37 15 20 - - -
22/08:30am - - - - - SSE 19 26 10 14 - - -
22/08:00am - - - - - SE 6 11 3 6 - - -
22/07:30am - - - - - ESE 11 19 6 10 - - -
22/07:00am - - - - - S 11 15 6 8 - - -
22/06:30am - - - - - SSW 17 22 9 12 - - -
22/06:00am - - - - - SSE 20 33 11 18 - - -
22/05:46am - - - - - SSE 28 41 15 22 - - -
22/05:30am - - - - - ESE 15 20 8 11 - - -
22/05:00am - - - - - SE 13 17 7 9 - - -
22/04:35am - - - - - S 35 41 19 22 - - -
22/04:30am - - - - - SE 13 19 7 10 - - -
22/04:00am - - - - - SSE 22 32 12 17 - - -
22/03:30am - - - - - SSE 24 32 13 17 - - -
22/03:00am - - - - - SSE 32 43 17 23 - - -
22/02:49am - - - - - S 52 70 28 38 - - -
22/02:44am - - - - - S 57 70 31 38 - - -
22/02:43am - - - - - S 28 67 15 36 - - -
22/02:30am - - - - - SSE 24 33 13 18 - - -
22/02:00am - - - - - S 26 33 14 18 - - -
22/01:30am - - - - - SSE 28 39 15 21 - - -
22/01:00am - - - - - SSE 26 35 14 19 - - -
22/12:30am - - - - - SSE 28 37 15 20 - - -
22/12:00am - - - - - SSE 35 46 19 25 - - -
 
Date/Time
WST
Temp
°C
App
Temp
°C
Dew
Point
Rel
Hum
%
Delta-T
°C
Wind Press
QNH
hPa
Press
MSL
hPa
Rain
since 9 am
mm
Dir
 
Spd
km/h
Gust
km/h
Spd
kts
Gust
kts
21/11:43pm - - - - - SSE 35 54 19 29 - - -
21/11:30pm - - - - - SSE 37 52 20 28 - - -
21/11:17pm - - - - - SSE 37 56 20 30 - - -
21/11:00pm - - - - - SSE 35 50 19 27 - - -
21/10:30pm - - - - - SSE 37 52 20 28 - - -
21/10:05pm - - - - - S 41 59 22 32 - - -
21/10:00pm - - - - - SSE 43 59 23 32 - - -
21/09:30pm - - - - - S 35 54 19 29 - - -
21/09:08pm - - - - - S 37 56 20 30 - - -
21/09:00pm - - - - - S 46 56 25 30 - - -
21/08:30pm - - - - - S 33 54 18 29 - - -
21/08:01pm - - - - - SSE 35 54 19 29 - - -
21/08:00pm - - - - - SSE 37 54 20 29 - - -
21/07:55pm - - - - - SSE 35 54 19 29 - - -
21/07:44pm - - - - - S 37 50 20 27 - - -
21/07:30pm - - - - - S 56 69 30 37 - - -
21/07:02pm - - - - - SSW 54 74 29 40 - - -
21/07:00pm - - - - - SSW 54 69 29 37 - - -
21/06:33pm - - - - - S 48 61 26 33 - - -
21/06:30pm - - - - - SSE 32 37 17 20 - - -
21/06:25pm - - - - - S 48 59 26 32 - - -
21/06:23pm - - - - - SW 35 57 19 31 - - -
21/06:17pm - - - - - W 20 22 11 12 - - -
21/06:00pm - - - - - NW 37 41 20 22 - - -
21/05:30pm - - - - - NW 32 43 17 23 - - -
21/05:00pm - - - - - N 20 32 11 17 - - -
21/04:30pm - - - - - N 22 33 12 18 - - -
21/04:00pm - - - - - N 22 33 12 18 - - -
21/03:30pm - - - - - N 13 19 7 10 - - -
21/03:00pm - - - - - N 19 28 10 15 - - -
21/02:30pm - - - - - NW 28 33 15 18 - - -
21/02:00pm - - - - - WNW 15 19 8 10 - - -
21/01:30pm - - - - - W 26 32 14 17 - - -
21/01:00pm - - - - - W 39 46 21 25 - - -
21/12:30pm - - - - - W 37 41 20 22 - - -
21/12:00pm - - - - - W 44 52 24 28 - - -
21/11:30am - - - - - W 48 61 26 33 - - -
21/11:18am - - - - - WSW 43 63 23 34 - - -
21/11:00am - - - - - WSW 41 56 22 30 - - -
21/10:30am - - - - - SW 44 57 24 31 - - -
21/10:00am - - - - - SW 43 54 23 29 - - -
21/09:30am - - - - - WSW 56 74 30 40 - - -
21/09:29am - - - - - WSW 54 63 29 34 - - -
21/09:27am - - - - - WNW 48 59 26 32 - - -
21/09:24am - - - - - NNW 57 69 31 37 - - -
21/09:06am - - - - - N 33 56 18 30 - - -
21/09:00am - - - - - N 33 48 18 26 - - -
21/08:36am - - - - - N 33 56 18 30 - - -
21/08:30am - - - - - N 35 50 19 27 - - -
21/08:00am - - - - - N 35 54 19 29 - - -
21/07:36am - - - - - N 32 50 17 27 - - -
21/07:30am - - - - - N 32 48 17 26 - - -
21/07:02am - - - - - N 28 57 15 31 - - -
21/07:00am - - - - - N 28 41 15 22 - - -
21/06:30am - - - - - NNE 28 35 15 19 - - -
21/06:00am - - - - - NNE 24 37 13 20 - - -
21/05:30am - - - - - NNE 22 32 12 17 - - -
21/05:00am - - - - - NNE 24 33 13 18 - - -
21/04:30am - - - - - NNE 22 32 12 17 - - -
21/04:00am - - - - - N 22 33 12 18 - - -
21/03:30am - - - - - N 22 32 12 17 - - -
21/03:00am - - - - - NNE 26 35 14 19 - - -
21/02:30am - - - - - NNE 24 30 13 16 - - -
21/02:00am - - - - - NE 24 33 13 18 - - -
21/01:30am - - - - - NE 24 33 13 18 - - -
21/01:00am - - - - - NNE 20 30 11 16 - - -
21/12:30am - - - - - N 15 20 8 11 - - -
21/12:00am - - - - - N 19 24 10 13 - - -
 
Date/Time
WST
Temp
°C
App
Temp
°C
Dew
Point
Rel
Hum
%
Delta-T
°C
Wind Press
QNH
hPa
Press
MSL
hPa
Rain
since 9 am
mm
Dir
 
Spd
km/h
Gust
km/h
Spd
kts
Gust
kts
20/11:30pm - - - - - NNW 32 35 17 19 - - -
20/11:00pm - - - - - N 19 22 10 12 - - -
20/10:30pm - - - - - NNE 13 19 7 10 - - -

Other Formats:

Comma delimited format used in spreadsheet applications
http://www.bom.gov.au/fwo/IDW60801/IDW60801.94607.axf

JavaScript Object Notation format (JSON) in row-major order
http://www.bom.gov.au/fwo/IDW60801/IDW60801.94607.json